sensor_id;sensor_type;location;lat;lon;timestamp;temperature;humidity
67586;SHT31;55785;47.946;20.540;2022-10-17T00:01:27;10.12;81.56
67586;SHT31;55785;47.946;20.540;2022-10-17T00:03:52;10.11;81.59
67586;SHT31;55785;47.946;20.540;2022-10-17T00:06:18;10.06;81.71
67586;SHT31;55785;47.946;20.540;2022-10-17T00:08:43;10.08;81.61
67586;SHT31;55785;47.946;20.540;2022-10-17T00:11:14;10.06;81.81
67586;SHT31;55785;47.946;20.540;2022-10-17T00:13:40;10.03;81.86
67586;SHT31;55785;47.946;20.540;2022-10-17T00:16:05;10.08;81.74
67586;SHT31;55785;47.946;20.540;2022-10-17T00:18:31;10.01;81.76
67586;SHT31;55785;47.946;20.540;2022-10-17T00:20:56;9.99;81.73
67586;SHT31;55785;47.946;20.540;2022-10-17T00:23:22;10.02;81.77
67586;SHT31;55785;47.946;20.540;2022-10-17T00:25:56;10.05;81.73
67586;SHT31;55785;47.946;20.540;2022-10-17T00:28:22;10.03;81.62
67586;SHT31;55785;47.946;20.540;2022-10-17T00:30:54;9.95;81.79
67586;SHT31;55785;47.946;20.540;2022-10-17T00:33:19;9.92;81.92
67586;SHT31;55785;47.946;20.540;2022-10-17T00:35:45;9.98;81.79
67586;SHT31;55785;47.946;20.540;2022-10-17T00:38:10;9.91;81.80
67586;SHT31;55785;47.946;20.540;2022-10-17T00:40:35;9.84;81.96
67586;SHT31;55785;47.946;20.540;2022-10-17T00:43:01;9.82;82.11
67586;SHT31;55785;47.946;20.540;2022-10-17T00:45:29;9.81;82.21
67586;SHT31;55785;47.946;20.540;2022-10-17T00:47:58;9.85;82.24
67586;SHT31;55785;47.946;20.540;2022-10-17T00:50:25;9.88;82.02
67586;SHT31;55785;47.946;20.540;2022-10-17T00:52:51;9.92;81.98
67586;SHT31;55785;47.946;20.540;2022-10-17T00:55:30;9.90;81.88
67586;SHT31;55785;47.946;20.540;2022-10-17T00:57:57;9.92;81.90
67586;SHT31;55785;47.946;20.540;2022-10-17T01:00:24;9.92;81.87
67586;SHT31;55785;47.946;20.540;2022-10-17T01:02:49;9.88;81.85
67586;SHT31;55785;47.946;20.540;2022-10-17T01:05:15;9.87;81.78
67586;SHT31;55785;47.946;20.540;2022-10-17T01:07:42;9.82;81.91
67586;SHT31;55785;47.946;20.540;2022-10-17T01:10:08;9.87;81.93
67586;SHT31;55785;47.946;20.540;2022-10-17T01:23:26;9.81;81.93
67586;SHT31;55785;47.946;20.540;2022-10-17T01:26:05;9.77;81.85
67586;SHT31;55785;47.946;20.540;2022-10-17T01:29:00;9.75;81.95
67586;SHT31;55785;47.946;20.540;2022-10-17T01:34:18;9.70;82.03
67586;SHT31;55785;47.946;20.540;2022-10-17T01:36:53;9.70;82.20
67586;SHT31;55785;47.946;20.540;2022-10-17T01:39:43;9.65;81.95
67586;SHT31;55785;47.946;20.540;2022-10-17T01:42:55;9.69;82.02
67586;SHT31;55785;47.946;20.540;2022-10-17T01:45:20;9.64;82.28
67586;SHT31;55785;47.946;20.540;2022-10-17T01:47:49;9.64;82.20
67586;SHT31;55785;47.946;20.540;2022-10-17T01:50:25;9.61;82.11
67586;SHT31;55785;47.946;20.540;2022-10-17T01:52:55;9.63;82.21
67586;SHT31;55785;47.946;20.540;2022-10-17T01:55:29;9.50;82.37
67586;SHT31;55785;47.946;20.540;2022-10-17T01:58:01;9.48;82.47
67586;SHT31;55785;47.946;20.540;2022-10-17T02:00:28;9.44;82.47
67586;SHT31;55785;47.946;20.540;2022-10-17T02:02:59;9.42;82.58
67586;SHT31;55785;47.946;20.540;2022-10-17T02:05:30;9.44;82.62
67586;SHT31;55785;47.946;20.540;2022-10-17T02:07:56;9.40;82.78
67586;SHT31;55785;47.946;20.540;2022-10-17T02:13:09;9.40;82.78
67586;SHT31;55785;47.946;20.540;2022-10-17T02:20:56;9.46;82.58
67586;SHT31;55785;47.946;20.540;2022-10-17T02:23:50;9.42;82.55
67586;SHT31;55785;47.946;20.540;2022-10-17T02:26:37;9.39;82.64
67586;SHT31;55785;47.946;20.540;2022-10-17T02:29:27;9.43;82.46
67586;SHT31;55785;47.946;20.540;2022-10-17T02:32:03;9.39;82.51
67586;SHT31;55785;47.946;20.540;2022-10-17T02:34:35;9.47;82.29
67586;SHT31;55785;47.946;20.540;2022-10-17T02:37:04;9.44;82.35
67586;SHT31;55785;47.946;20.540;2022-10-17T02:39:31;9.46;82.42
67586;SHT31;55785;47.946;20.540;2022-10-17T02:42:01;9.43;82.31
67586;SHT31;55785;47.946;20.540;2022-10-17T02:44:27;9.43;82.35
67586;SHT31;55785;47.946;20.540;2022-10-17T02:47:02;9.46;82.36
67586;SHT31;55785;47.946;20.540;2022-10-17T02:49:31;9.43;82.34
67586;SHT31;55785;47.946;20.540;2022-10-17T02:55:09;9.39;82.45
67586;SHT31;55785;47.946;20.540;2022-10-17T02:57:39;9.40;82.51
67586;SHT31;55785;47.946;20.540;2022-10-17T03:00:08;9.34;82.48
67586;SHT31;55785;47.946;20.540;2022-10-17T03:02:46;9.39;82.54
67586;SHT31;55785;47.946;20.540;2022-10-17T03:05:14;9.27;82.85
67586;SHT31;55785;47.946;20.540;2022-10-17T03:07:39;9.25;82.87
67586;SHT31;55785;47.946;20.540;2022-10-17T03:10:05;9.32;82.83
67586;SHT31;55785;47.946;20.540;2022-10-17T03:12:31;9.34;82.68
67586;SHT31;55785;47.946;20.540;2022-10-17T03:14:56;9.19;82.95
67586;SHT31;55785;47.946;20.540;2022-10-17T03:17:21;9.23;82.85
67586;SHT31;55785;47.946;20.540;2022-10-17T03:19:47;9.23;82.83
67586;SHT31;55785;47.946;20.540;2022-10-17T03:22:12;9.22;82.91
67586;SHT31;55785;47.946;20.540;2022-10-17T03:24:37;9.23;82.84
67586;SHT31;55785;47.946;20.540;2022-10-17T03:27:02;9.20;82.70
67586;SHT31;55785;47.946;20.540;2022-10-17T03:29:28;9.32;82.76
67586;SHT31;55785;47.946;20.540;2022-10-17T03:31:53;9.30;82.50
67586;SHT31;55785;47.946;20.540;2022-10-17T03:34:19;9.27;82.66
67586;SHT31;55785;47.946;20.540;2022-10-17T03:36:44;9.32;82.46
67586;SHT31;55785;47.946;20.540;2022-10-17T03:39:10;9.27;82.59
67586;SHT31;55785;47.946;20.540;2022-10-17T03:41:35;9.23;82.55
67586;SHT31;55785;47.946;20.540;2022-10-17T03:44:00;9.18;82.80
67586;SHT31;55785;47.946;20.540;2022-10-17T03:46:26;9.13;82.78
67586;SHT31;55785;47.946;20.540;2022-10-17T03:48:51;9.16;82.75
67586;SHT31;55785;47.946;20.540;2022-10-17T03:51:17;9.27;82.66
67586;SHT31;55785;47.946;20.540;2022-10-17T03:53:42;9.25;82.66
67586;SHT31;55785;47.946;20.540;2022-10-17T03:56:16;9.25;82.66
67586;SHT31;55785;47.946;20.540;2022-10-17T03:58:42;9.29;82.64
67586;SHT31;55785;47.946;20.540;2022-10-17T04:01:09;9.27;82.49
67586;SHT31;55785;47.946;20.540;2022-10-17T04:03:35;9.26;82.34
67586;SHT31;55785;47.946;20.540;2022-10-17T04:06:01;9.20;82.75
67586;SHT31;55785;47.946;20.540;2022-10-17T04:08:28;9.29;82.44
67586;SHT31;55785;47.946;20.540;2022-10-17T04:11:00;9.26;82.44
67586;SHT31;55785;47.946;20.540;2022-10-17T04:13:27;9.25;82.39
67586;SHT31;55785;47.946;20.540;2022-10-17T04:15:57;9.23;82.42
67586;SHT31;55785;47.946;20.540;2022-10-17T04:18:22;9.26;82.45
67586;SHT31;55785;47.946;20.540;2022-10-17T04:20:48;9.16;82.64
67586;SHT31;55785;47.946;20.540;2022-10-17T04:23:14;9.18;82.50
67586;SHT31;55785;47.946;20.540;2022-10-17T04:25:39;9.20;82.56
67586;SHT31;55785;47.946;20.540;2022-10-17T04:28:04;9.18;82.37
67586;SHT31;55785;47.946;20.540;2022-10-17T04:30:30;9.13;82.42
67586;SHT31;55785;47.946;20.540;2022-10-17T04:32:55;9.06;82.52
67586;SHT31;55785;47.946;20.540;2022-10-17T04:35:20;9.09;82.63
67586;SHT31;55785;47.946;20.540;2022-10-17T04:37:46;9.09;82.67
67586;SHT31;55785;47.946;20.540;2022-10-17T04:40:11;9.09;82.55
67586;SHT31;55785;47.946;20.540;2022-10-17T04:42:37;9.08;82.60
67586;SHT31;55785;47.946;20.540;2022-10-17T04:45:03;8.99;82.77
67586;SHT31;55785;47.946;20.540;2022-10-17T04:47:28;9.08;82.68
67586;SHT31;55785;47.946;20.540;2022-10-17T04:49:54;8.99;82.72
67586;SHT31;55785;47.946;20.540;2022-10-17T04:52:19;8.98;82.73
67586;SHT31;55785;47.946;20.540;2022-10-17T04:54:44;8.99;82.70
67586;SHT31;55785;47.946;20.540;2022-10-17T04:57:10;8.92;82.92
67586;SHT31;55785;47.946;20.540;2022-10-17T04:59:35;8.92;82.87
67586;SHT31;55785;47.946;20.540;2022-10-17T05:02:00;8.95;82.67
67586;SHT31;55785;47.946;20.540;2022-10-17T05:04:26;8.91;82.73
67586;SHT31;55785;47.946;20.540;2022-10-17T05:06:51;8.84;83.02
67586;SHT31;55785;47.946;20.540;2022-10-17T05:09:17;8.86;82.90
67586;SHT31;55785;47.946;20.540;2022-10-17T05:11:42;8.85;82.69
67586;SHT31;55785;47.946;20.540;2022-10-17T05:14:07;8.79;82.88
67586;SHT31;55785;47.946;20.540;2022-10-17T05:16:33;8.86;82.91
67586;SHT31;55785;47.946;20.540;2022-10-17T05:18:58;8.79;83.19
67586;SHT31;55785;47.946;20.540;2022-10-17T05:21:25;8.75;83.29
67586;SHT31;55785;47.946;20.540;2022-10-17T05:23:51;8.75;83.24
67586;SHT31;55785;47.946;20.540;2022-10-17T05:26:17;8.79;83.24
67586;SHT31;55785;47.946;20.540;2022-10-17T05:28:42;8.81;83.21
67586;SHT31;55785;47.946;20.540;2022-10-17T05:31:09;8.85;83.31
67586;SHT31;55785;47.946;20.540;2022-10-17T05:33:35;8.91;83.25
67586;SHT31;55785;47.946;20.540;2022-10-17T05:36:01;8.93;83.13
67586;SHT31;55785;47.946;20.540;2022-10-17T05:38:27;8.98;83.01
67586;SHT31;55785;47.946;20.540;2022-10-17T05:40:59;8.91;83.11
67586;SHT31;55785;47.946;20.540;2022-10-17T05:43:25;8.96;83.02
67586;SHT31;55785;47.946;20.540;2022-10-17T05:45:51;9.02;82.91
67586;SHT31;55785;47.946;20.540;2022-10-17T05:48:17;9.05;82.78
67586;SHT31;55785;47.946;20.540;2022-10-17T05:50:42;9.13;82.93
67586;SHT31;55785;47.946;20.540;2022-10-17T05:53:08;9.16;82.84
67586;SHT31;55785;47.946;20.540;2022-10-17T05:55:33;9.16;82.90
67586;SHT31;55785;47.946;20.540;2022-10-17T05:57:59;9.19;82.95
67586;SHT31;55785;47.946;20.540;2022-10-17T06:00:24;9.26;82.90
67586;SHT31;55785;47.946;20.540;2022-10-17T06:02:50;9.30;82.93
67586;SHT31;55785;47.946;20.540;2022-10-17T06:05:16;9.32;82.92
67586;SHT31;55785;47.946;20.540;2022-10-17T06:07:41;9.36;82.93
67586;SHT31;55785;47.946;20.540;2022-10-17T06:10:07;9.46;82.92
67586;SHT31;55785;47.946;20.540;2022-10-17T06:12:33;9.53;82.67
67586;SHT31;55785;47.946;20.540;2022-10-17T06:14:58;9.40;83.05
67586;SHT31;55785;47.946;20.540;2022-10-17T06:17:24;9.51;83.39
67586;SHT31;55785;47.946;20.540;2022-10-17T06:19:49;9.74;83.24
67586;SHT31;55785;47.946;20.540;2022-10-17T06:22:14;9.92;82.75
67586;SHT31;55785;47.946;20.540;2022-10-17T06:24:39;10.08;82.29
67586;SHT31;55785;47.946;20.540;2022-10-17T06:27:08;10.18;82.26
67586;SHT31;55785;47.946;20.540;2022-10-17T06:29:33;10.31;82.09
67586;SHT31;55785;47.946;20.540;2022-10-17T06:31:59;10.40;81.88
67586;SHT31;55785;47.946;20.540;2022-10-17T06:34:24;10.53;81.57
67586;SHT31;55785;47.946;20.540;2022-10-17T06:36:50;10.60;81.32
67586;SHT31;55785;47.946;20.540;2022-10-17T06:39:15;10.81;81.38
67586;SHT31;55785;47.946;20.540;2022-10-17T06:41:40;11.08;80.98
67586;SHT31;55785;47.946;20.540;2022-10-17T06:44:06;11.22;81.07
67586;SHT31;55785;47.946;20.540;2022-10-17T06:46:31;11.38;80.30
67586;SHT31;55785;47.946;20.540;2022-10-17T06:48:56;11.58;80.03
67586;SHT31;55785;47.946;20.540;2022-10-17T06:51:22;11.63;80.37
67586;SHT31;55785;47.946;20.540;2022-10-17T06:53:47;11.76;78.93
67586;SHT31;55785;47.946;20.540;2022-10-17T06:56:12;11.89;79.12
67586;SHT31;55785;47.946;20.540;2022-10-17T06:58:38;11.90;78.99
67586;SHT31;55785;47.946;20.540;2022-10-17T07:01:12;11.89;79.25
67586;SHT31;55785;47.946;20.540;2022-10-17T07:03:38;12.16;77.61
67586;SHT31;55785;47.946;20.540;2022-10-17T07:06:04;12.24;78.25
67586;SHT31;55785;47.946;20.540;2022-10-17T07:08:29;12.33;77.81
67586;SHT31;55785;47.946;20.540;2022-10-17T07:10:55;12.51;77.14
67586;SHT31;55785;47.946;20.540;2022-10-17T07:13:21;12.65;77.16
67586;SHT31;55785;47.946;20.540;2022-10-17T07:15:46;12.81;76.68
67586;SHT31;55785;47.946;20.540;2022-10-17T07:18:12;12.95;75.62
67586;SHT31;55785;47.946;20.540;2022-10-17T07:20:37;13.09;75.83
67586;SHT31;55785;47.946;20.540;2022-10-17T07:23:02;13.20;76.94
67586;SHT31;55785;47.946;20.540;2022-10-17T07:25:28;13.41;74.81
67586;SHT31;55785;47.946;20.540;2022-10-17T07:27:53;13.51;75.62
67586;SHT31;55785;47.946;20.540;2022-10-17T07:30:19;13.60;76.04
67586;SHT31;55785;47.946;20.540;2022-10-17T07:32:45;13.70;76.16
67586;SHT31;55785;47.946;20.540;2022-10-17T07:35:11;13.85;75.72
67586;SHT31;55785;47.946;20.540;2022-10-17T07:37:37;14.06;75.50
67586;SHT31;55785;47.946;20.540;2022-10-17T07:40:05;14.23;71.81
67586;SHT31;55785;47.946;20.540;2022-10-17T07:42:40;14.34;73.12
67586;SHT31;55785;47.946;20.540;2022-10-17T07:45:06;14.53;72.64
67586;SHT31;55785;47.946;20.540;2022-10-17T07:47:31;14.59;73.20
67586;SHT31;55785;47.946;20.540;2022-10-17T07:49:56;14.71;71.64
67586;SHT31;55785;47.946;20.540;2022-10-17T07:52:22;14.88;74.69
67586;SHT31;55785;47.946;20.540;2022-10-17T07:54:47;14.88;73.68
67586;SHT31;55785;47.946;20.540;2022-10-17T07:57:13;14.94;73.45
67586;SHT31;55785;47.946;20.540;2022-10-17T07:59:38;15.01;73.73
67586;SHT31;55785;47.946;20.540;2022-10-17T08:02:04;15.21;74.93
67586;SHT31;55785;47.946;20.540;2022-10-17T08:04:29;15.29;74.84
67586;SHT31;55785;47.946;20.540;2022-10-17T08:06:55;15.38;73.54
67586;SHT31;55785;47.946;20.540;2022-10-17T08:09:20;15.43;73.37
67586;SHT31;55785;47.946;20.540;2022-10-17T08:11:46;15.42;68.68
67586;SHT31;55785;47.946;20.540;2022-10-17T08:14:12;15.70;75.64
67586;SHT31;55785;47.946;20.540;2022-10-17T08:16:41;15.80;75.45
67586;SHT31;55785;47.946;20.540;2022-10-17T08:19:06;16.20;73.94
67586;SHT31;55785;47.946;20.540;2022-10-17T08:21:31;16.25;70.75
67586;SHT31;55785;47.946;20.540;2022-10-17T08:23:57;16.25;68.16
67586;SHT31;55785;47.946;20.540;2022-10-17T08:26:22;16.25;66.62
67586;SHT31;55785;47.946;20.540;2022-10-17T08:28:48;16.38;67.42
67586;SHT31;55785;47.946;20.540;2022-10-17T08:31:15;16.42;65.98
67586;SHT31;55785;47.946;20.540;2022-10-17T08:33:41;16.48;67.76
67586;SHT31;55785;47.946;20.540;2022-10-17T08:36:07;16.58;65.67
67586;SHT31;55785;47.946;20.540;2022-10-17T08:38:34;16.66;66.92
67586;SHT31;55785;47.946;20.540;2022-10-17T08:41:03;16.72;63.90
67586;SHT31;55785;47.946;20.540;2022-10-17T08:46:05;16.87;64.67
67586;SHT31;55785;47.946;20.540;2022-10-17T08:48:37;16.94;65.59
67586;SHT31;55785;47.946;20.540;2022-10-17T08:51:14;17.16;65.97
67586;SHT31;55785;47.946;20.540;2022-10-17T08:58:42;17.20;63.01
67586;SHT31;55785;47.946;20.540;2022-10-17T09:06:51;17.61;64.66
67586;SHT31;55785;47.946;20.540;2022-10-17T09:17:51;17.67;63.84
67586;SHT31;55785;47.946;20.540;2022-10-17T09:20:24;17.74;64.20
67586;SHT31;55785;47.946;20.540;2022-10-17T09:22:56;17.82;61.49
67586;SHT31;55785;47.946;20.540;2022-10-17T09:25:22;17.88;63.28
67586;SHT31;55785;47.946;20.540;2022-10-17T09:28:02;17.89;60.83
67586;SHT31;55785;47.946;20.540;2022-10-17T09:30:33;17.96;60.91
67586;SHT31;55785;47.946;20.540;2022-10-17T09:33:00;18.07;63.25
67586;SHT31;55785;47.946;20.540;2022-10-17T09:35:33;18.05;59.92
67586;SHT31;55785;47.946;20.540;2022-10-17T09:37:58;18.17;61.94
67586;SHT31;55785;47.946;20.540;2022-10-17T09:40:29;18.23;59.10
67586;SHT31;55785;47.946;20.540;2022-10-17T09:42:56;18.34;62.35
67586;SHT31;55785;47.946;20.540;2022-10-17T09:45:23;18.40;61.85
67586;SHT31;55785;47.946;20.540;2022-10-17T09:47:56;18.50;60.54
67586;SHT31;55785;47.946;20.540;2022-10-17T09:50:30;18.48;58.85
67586;SHT31;55785;47.946;20.540;2022-10-17T09:52:58;18.54;58.56
67586;SHT31;55785;47.946;20.540;2022-10-17T09:55:39;18.60;59.03
67586;SHT31;55785;47.946;20.540;2022-10-17T09:58:07;18.64;55.95
67586;SHT31;55785;47.946;20.540;2022-10-17T10:00:41;18.67;60.23
67586;SHT31;55785;47.946;20.540;2022-10-17T10:03:23;18.85;59.15
67586;SHT31;55785;47.946;20.540;2022-10-17T10:06:13;19.03;60.36
67586;SHT31;55785;47.946;20.540;2022-10-17T10:08:54;18.92;56.94
67586;SHT31;55785;47.946;20.540;2022-10-17T10:11:42;19.05;56.50
67586;SHT31;55785;47.946;20.540;2022-10-17T10:14:15;19.06;57.39
67586;SHT31;55785;47.946;20.540;2022-10-17T10:16:44;19.13;56.44
67586;SHT31;55785;47.946;20.540;2022-10-17T10:19:29;19.13;55.75
67586;SHT31;55785;47.946;20.540;2022-10-17T10:22:12;19.30;58.23
67586;SHT31;55785;47.946;20.540;2022-10-17T10:24:38;19.47;55.26
67586;SHT31;55785;47.946;20.540;2022-10-17T10:27:04;19.49;57.23
67586;SHT31;55785;47.946;20.540;2022-10-17T10:29:32;19.71;56.43
67586;SHT31;55785;47.946;20.540;2022-10-17T10:32:18;19.74;57.92
67586;SHT31;55785;47.946;20.540;2022-10-17T10:35:15;19.97;57.78
67586;SHT31;55785;47.946;20.540;2022-10-17T10:37:45;20.00;50.82
67586;SHT31;55785;47.946;20.540;2022-10-17T10:40:49;20.12;52.70
67586;SHT31;55785;47.946;20.540;2022-10-17T10:43:39;20.04;49.91
67586;SHT31;55785;47.946;20.540;2022-10-17T10:48:56;20.29;52.92
67586;SHT31;55785;47.946;20.540;2022-10-17T10:51:40;20.24;52.19
67586;SHT31;55785;47.946;20.540;2022-10-17T10:54:14;20.46;52.00
67586;SHT31;55785;47.946;20.540;2022-10-17T10:56:48;20.70;48.13
67586;SHT31;55785;47.946;20.540;2022-10-17T11:02:01;21.01;52.82
67586;SHT31;55785;47.946;20.540;2022-10-17T11:04:43;21.14;49.23
67586;SHT31;55785;47.946;20.540;2022-10-17T11:07:29;21.76;50.23
67586;SHT31;55785;47.946;20.540;2022-10-17T11:10:36;22.13;48.20
67586;SHT31;55785;47.946;20.540;2022-10-17T11:13:18;22.50;46.24
67586;SHT31;55785;47.946;20.540;2022-10-17T11:19:02;22.41;47.88
67586;SHT31;55785;47.946;20.540;2022-10-17T11:24:36;22.76;47.43
67586;SHT31;55785;47.946;20.540;2022-10-17T11:27:04;22.78;44.81
67586;SHT31;55785;47.946;20.540;2022-10-17T11:29:32;22.58;44.24
67586;SHT31;55785;47.946;20.540;2022-10-17T11:32:12;23.19;45.23
67586;SHT31;55785;47.946;20.540;2022-10-17T11:34:43;23.29;45.67
67586;SHT31;55785;47.946;20.540;2022-10-17T11:37:30;22.82;45.29
67586;SHT31;55785;47.946;20.540;2022-10-17T11:40:04;22.41;48.04
67586;SHT31;55785;47.946;20.540;2022-10-17T11:42:34;22.55;44.10
67586;SHT31;55785;47.946;20.540;2022-10-17T11:45:08;22.73;47.78
67586;SHT31;55785;47.946;20.540;2022-10-17T11:47:45;22.44;45.09
67586;SHT31;55785;47.946;20.540;2022-10-17T11:50:33;22.33;44.21
67586;SHT31;55785;47.946;20.540;2022-10-17T11:53:07;22.45;47.20
67586;SHT31;55785;47.946;20.540;2022-10-17T11:55:33;22.20;44.51
67586;SHT31;55785;47.946;20.540;2022-10-17T12:01:16;21.61;47.27
67586;SHT31;55785;47.946;20.540;2022-10-17T12:04:10;21.58;47.02
67586;SHT31;55785;47.946;20.540;2022-10-17T12:07:10;21.31;49.68
67586;SHT31;55785;47.946;20.540;2022-10-17T12:12:06;21.25;47.22
67586;SHT31;55785;47.946;20.540;2022-10-17T12:14:43;21.03;46.48
67586;SHT31;55785;47.946;20.540;2022-10-17T12:17:32;21.03;49.88
67586;SHT31;55785;47.946;20.540;2022-10-17T12:25:59;21.18;50.39
67586;SHT31;55785;47.946;20.540;2022-10-17T12:28:26;21.18;47.51
67586;SHT31;55785;47.946;20.540;2022-10-17T12:30:55;21.18;48.33
67586;SHT31;55785;47.946;20.540;2022-10-17T12:33:34;21.10;47.93
67586;SHT31;55785;47.946;20.540;2022-10-17T12:38:46;21.31;47.46
67586;SHT31;55785;47.946;20.540;2022-10-17T12:41:12;21.24;48.12
67586;SHT31;55785;47.946;20.540;2022-10-17T12:49:45;21.03;47.86
67586;SHT31;55785;47.946;20.540;2022-10-17T12:55:09;21.35;48.61
67586;SHT31;55785;47.946;20.540;2022-10-17T12:57:59;21.23;47.65
67586;SHT31;55785;47.946;20.540;2022-10-17T13:00:35;20.94;44.67
67586;SHT31;55785;47.946;20.540;2022-10-17T13:05:41;21.31;45.16
67586;SHT31;55785;47.946;20.540;2022-10-17T13:08:17;21.28;46.63
67586;SHT31;55785;47.946;20.540;2022-10-17T13:10:46;21.45;46.87
67586;SHT31;55785;47.946;20.540;2022-10-17T13:13:17;21.42;45.83
67586;SHT31;55785;47.946;20.540;2022-10-17T13:15:51;21.52;45.91
67586;SHT31;55785;47.946;20.540;2022-10-17T13:18:19;21.46;46.83
67586;SHT31;55785;47.946;20.540;2022-10-17T13:20:57;21.35;47.45
67586;SHT31;55785;47.946;20.540;2022-10-17T13:23:24;21.28;45.19
67586;SHT31;55785;47.946;20.540;2022-10-17T13:26:05;21.12;48.03
67586;SHT31;55785;47.946;20.540;2022-10-17T13:28:31;21.10;50.21
67586;SHT31;55785;47.946;20.540;2022-10-17T13:30:56;20.98;49.49
67586;SHT31;55785;47.946;20.540;2022-10-17T13:33:36;20.67;49.02
67586;SHT31;55785;47.946;20.540;2022-10-17T13:36:05;20.67;50.13
67586;SHT31;55785;47.946;20.540;2022-10-17T13:38:33;20.45;47.32
67586;SHT31;55785;47.946;20.540;2022-10-17T13:41:00;20.45;47.24
67586;SHT31;55785;47.946;20.540;2022-10-17T13:43:26;20.57;51.49
67586;SHT31;55785;47.946;20.540;2022-10-17T13:45:55;20.42;49.89
67586;SHT31;55785;47.946;20.540;2022-10-17T13:48:23;20.38;47.98
67586;SHT31;55785;47.946;20.540;2022-10-17T13:50:52;20.32;48.99
67586;SHT31;55785;47.946;20.540;2022-10-17T13:53:34;20.22;46.13
67586;SHT31;55785;47.946;20.540;2022-10-17T13:56:01;20.26;47.17
67586;SHT31;55785;47.946;20.540;2022-10-17T13:58:40;20.17;49.67
67586;SHT31;55785;47.946;20.540;2022-10-17T14:01:07;20.09;47.99
67586;SHT31;55785;47.946;20.540;2022-10-17T14:03:32;20.12;47.36
67586;SHT31;55785;47.946;20.540;2022-10-17T14:06:27;20.14;47.07
67586;SHT31;55785;47.946;20.540;2022-10-17T14:09:06;20.01;48.90
67586;SHT31;55785;47.946;20.540;2022-10-17T14:11:41;19.94;50.05
67586;SHT31;55785;47.946;20.540;2022-10-17T14:14:20;19.90;48.10
67586;SHT31;55785;47.946;20.540;2022-10-17T14:16:47;19.84;49.72
67586;SHT31;55785;47.946;20.540;2022-10-17T14:19:26;19.77;50.09
67586;SHT31;55785;47.946;20.540;2022-10-17T14:22:13;19.80;47.85
67586;SHT31;55785;47.946;20.540;2022-10-17T14:24:39;19.77;50.07
67586;SHT31;55785;47.946;20.540;2022-10-17T14:27:25;19.88;49.34
67586;SHT31;55785;47.946;20.540;2022-10-17T14:29:52;19.92;51.56
67586;SHT31;55785;47.946;20.540;2022-10-17T14:32:18;19.71;49.03
67586;SHT31;55785;47.946;20.540;2022-10-17T14:34:45;19.77;48.06
67586;SHT31;55785;47.946;20.540;2022-10-17T14:37:20;19.78;50.14
67586;SHT31;55785;47.946;20.540;2022-10-17T14:39:49;19.77;49.70
67586;SHT31;55785;47.946;20.540;2022-10-17T14:42:21;19.70;50.11
67586;SHT31;55785;47.946;20.540;2022-10-17T14:44:51;19.64;50.07
67586;SHT31;55785;47.946;20.540;2022-10-17T14:47:23;19.60;52.40
67586;SHT31;55785;47.946;20.540;2022-10-17T14:49:55;19.56;50.81
67586;SHT31;55785;47.946;20.540;2022-10-17T14:52:27;19.56;52.87
67586;SHT31;55785;47.946;20.540;2022-10-17T14:54:53;19.59;54.08
67586;SHT31;55785;47.946;20.540;2022-10-17T14:57:42;19.40;52.55
67586;SHT31;55785;47.946;20.540;2022-10-17T15:00:13;19.29;51.59
67586;SHT31;55785;47.946;20.540;2022-10-17T15:02:39;19.16;52.55
67586;SHT31;55785;47.946;20.540;2022-10-17T15:05:04;19.08;52.11
67586;SHT31;55785;47.946;20.540;2022-10-17T15:07:30;18.95;53.60
67586;SHT31;55785;47.946;20.540;2022-10-17T15:09:55;18.78;53.45
67586;SHT31;55785;47.946;20.540;2022-10-17T15:12:22;18.69;52.87
67586;SHT31;55785;47.946;20.540;2022-10-17T15:14:48;18.79;54.96
67586;SHT31;55785;47.946;20.540;2022-10-17T15:17:17;18.63;55.81
67586;SHT31;55785;47.946;20.540;2022-10-17T15:19:43;18.57;57.39
67586;SHT31;55785;47.946;20.540;2022-10-17T15:22:08;18.48;57.92
67586;SHT31;55785;47.946;20.540;2022-10-17T15:24:34;18.23;59.00
67586;SHT31;55785;47.946;20.540;2022-10-17T15:26:59;17.99;59.55
67586;SHT31;55785;47.946;20.540;2022-10-17T15:29:24;17.65;60.00
67586;SHT31;55785;47.946;20.540;2022-10-17T15:31:52;17.35;60.86
67586;SHT31;55785;47.946;20.540;2022-10-17T15:34:18;17.09;61.86
67586;SHT31;55785;47.946;20.540;2022-10-17T15:36:48;16.72;63.61
67586;SHT31;55785;47.946;20.540;2022-10-17T15:39:14;16.49;64.26
67586;SHT31;55785;47.946;20.540;2022-10-17T15:41:39;16.29;64.81
67586;SHT31;55785;47.946;20.540;2022-10-17T15:44:05;16.18;65.07
67586;SHT31;55785;47.946;20.540;2022-10-17T15:46:33;15.94;65.85
67586;SHT31;55785;47.946;20.540;2022-10-17T15:49:05;15.94;65.99
67586;SHT31;55785;47.946;20.540;2022-10-17T15:51:30;15.60;67.84
67586;SHT31;55785;47.946;20.540;2022-10-17T15:53:56;15.42;68.37
67586;SHT31;55785;47.946;20.540;2022-10-17T15:56:28;15.18;70.09
67586;SHT31;55785;47.946;20.540;2022-10-17T15:58:53;15.04;70.11
67586;SHT31;55785;47.946;20.540;2022-10-17T16:01:22;15.01;70.11
67586;SHT31;55785;47.946;20.540;2022-10-17T16:03:48;14.92;70.76
67586;SHT31;55785;47.946;20.540;2022-10-17T16:06:13;14.98;69.68
67586;SHT31;55785;47.946;20.540;2022-10-17T16:08:39;14.89;70.50
67586;SHT31;55785;47.946;20.540;2022-10-17T16:11:04;14.78;70.72
67586;SHT31;55785;47.946;20.540;2022-10-17T16:13:30;14.68;70.63
67586;SHT31;55785;47.946;20.540;2022-10-17T16:15:55;14.59;70.62
67586;SHT31;55785;47.946;20.540;2022-10-17T16:18:21;14.46;71.41
67586;SHT31;55785;47.946;20.540;2022-10-17T16:20:46;14.34;72.17
67586;SHT31;55785;47.946;20.540;2022-10-17T16:23:12;14.20;72.54
67586;SHT31;55785;47.946;20.540;2022-10-17T16:25:38;14.12;72.69
67586;SHT31;55785;47.946;20.540;2022-10-17T16:28:03;14.06;72.84
67586;SHT31;55785;47.946;20.540;2022-10-17T16:30:29;14.01;73.20
67586;SHT31;55785;47.946;20.540;2022-10-17T16:32:55;13.99;73.02
67586;SHT31;55785;47.946;20.540;2022-10-17T16:35:23;13.89;73.39
67586;SHT31;55785;47.946;20.540;2022-10-17T16:37:49;13.70;73.68
67586;SHT31;55785;47.946;20.540;2022-10-17T16:40:15;13.74;73.70
67586;SHT31;55785;47.946;20.540;2022-10-17T16:42:40;13.65;74.14
67586;SHT31;55785;47.946;20.540;2022-10-17T16:45:06;13.51;74.37
67586;SHT31;55785;47.946;20.540;2022-10-17T16:47:32;13.48;74.27
67586;SHT31;55785;47.946;20.540;2022-10-17T16:49:57;13.40;74.44
67586;SHT31;55785;47.946;20.540;2022-10-17T16:52:22;13.37;74.48
67586;SHT31;55785;47.946;20.540;2022-10-17T16:54:48;13.30;74.70
67586;SHT31;55785;47.946;20.540;2022-10-17T16:57:13;13.26;74.63
67586;SHT31;55785;47.946;20.540;2022-10-17T16:59:39;13.24;74.66
67586;SHT31;55785;47.946;20.540;2022-10-17T17:02:05;13.27;74.65